Time;durP1;ratioP1;P1;durP2;ratioP2;P2;SDS_P1;SDS_P2;PMS_P1;PMS_P2;Temp;Humidity;BMP_temperature;BMP_pressure;BME280_temperature;BME280_humidity;BME280_pressure;Samples;Min_cycle;Max_cycle;Signal;HPM_P1;HPM_P2
2022/11/24 00:01:15;;;;;;;37.60;17.05;;;;;;;2.92;71.32;97579.69;5050608;28;20056;-71
2022/11/24 00:03:41;;;;;;;37.30;17.50;;;;;;;2.90;71.26;97588.09;5050893;28;20454;-71
2022/11/24 00:06:09;;;;;;;38.25;18.30;;;;;;;2.91;71.21;97578.06;5051457;28;20087;-71
2022/11/24 00:08:36;;;;;;;108.40;32.55;;;;;;;2.92;71.64;97579.69;5051558;28;20040;-71
2022/11/24 00:11:07;;;;;;;88.90;32.13;;;;;;;2.93;71.18;97574.00;5051819;28;20676;-70
2022/11/24 00:13:33;;;;;;;60.55;24.17;;;;;;;2.93;71.40;97576.72;5051293;28;20036;-70
2022/11/24 00:16:10;;;;;;;47.25;19.73;;;;;;;2.94;70.90;97572.94;5051201;28;20021;-70
2022/11/24 00:18:35;;;;;;;39.70;18.02;;;;;;;2.95;71.40;97576.44;5051692;28;20033;-73
2022/11/24 00:21:00;;;;;;;41.78;19.05;;;;;;;2.95;70.87;97590.81;5052396;28;20087;-73
2022/11/24 00:23:26;;;;;;;33.15;16.38;;;;;;;2.96;71.48;97584.31;5052219;28;20115;-72
2022/11/24 00:25:51;;;;;;;35.17;16.83;;;;;;;2.97;70.97;97588.66;5052057;28;20024;-73
2022/11/24 00:28:17;;;;;;;36.03;18.20;;;;;;;2.97;71.15;97598.66;5052169;28;20081;-70
2022/11/24 00:30:42;;;;;;;81.63;30.70;;;;;;;2.95;71.46;97601.66;5052623;28;20025;-71
2022/11/24 00:33:07;;;;;;;67.07;26.63;;;;;;;2.96;70.96;97607.88;5052422;28;20484;-70
2022/11/24 00:35:33;;;;;;;36.63;17.20;;;;;;;2.96;71.52;97613.28;5050510;28;20021;-70
2022/11/24 00:37:58;;;;;;;32.10;15.88;;;;;;;2.93;70.64;97614.66;5050510;28;20029;-70
2022/11/24 00:40:23;;;;;;;32.60;15.75;;;;;;;2.90;71.46;97615.19;5050718;28;20099;-70
2022/11/24 00:42:49;;;;;;;29.02;13.93;;;;;;;2.89;71.04;97615.44;5050711;28;20028;-70
2022/11/24 00:45:14;;;;;;;30.98;15.32;;;;;;;2.90;70.83;97617.06;5050297;28;20056;-71
2022/11/24 00:47:39;;;;;;;31.20;14.48;;;;;;;2.90;71.00;97617.06;5051345;28;20389;-71
2022/11/24 00:50:05;;;;;;;26.48;13.35;;;;;;;2.91;70.79;97618.69;5050778;28;20415;-72
2022/11/24 00:52:31;;;;;;;27.70;13.75;;;;;;;2.90;71.46;97614.34;5050686;28;20029;-71
2022/11/24 00:54:56;;;;;;;26.27;12.35;;;;;;;2.90;71.36;97617.88;5049908;28;20175;-70
2022/11/24 00:57:22;;;;;;;25.27;12.32;;;;;;;2.92;71.27;97623.03;5049538;28;20036;-71
2022/11/24 00:59:47;;;;;;;25.95;14.00;;;;;;;2.91;71.32;97629.53;5050514;28;20053;-71
2022/11/24 01:02:12;;;;;;;26.40;13.32;;;;;;;2.93;71.26;97627.34;5050584;28;20039;-71
2022/11/24 01:04:38;;;;;;;29.35;13.85;;;;;;;2.93;70.47;97628.19;5049813;28;20060;-71
2022/11/24 01:07:04;;;;;;;29.55;13.85;;;;;;;2.91;70.40;97622.22;5050469;28;20024;-71
2022/11/24 01:09:29;;;;;;;28.13;14.48;;;;;;;2.89;70.86;97621.69;5050250;28;20037;-71
2022/11/24 01:12:00;;;;;;;29.58;14.07;;;;;;;2.86;71.00;97624.91;5050917;28;20028;-71
2022/11/24 01:14:26;;;;;;;24.98;13.15;;;;;;;2.85;71.34;97628.69;5051503;28;20024;-71
2022/11/24 01:16:53;;;;;;;28.42;13.68;;;;;;;2.84;71.06;97627.06;5050248;28;20021;-70
2022/11/24 01:19:19;;;;;;;30.38;15.60;;;;;;;2.87;70.58;97633.84;5050847;28;20064;-71
2022/11/24 01:21:45;;;;;;;33.42;16.85;;;;;;;2.89;70.79;97629.81;5050068;28;20408;-70
2022/11/24 01:24:11;;;;;;;49.83;20.85;;;;;;;2.90;71.11;97630.59;5049864;28;20033;-72
2022/11/24 01:26:36;;;;;;;56.50;20.00;;;;;;;2.88;70.89;97622.75;5048420;28;20178;-73
2022/11/24 01:29:02;;;;;;;55.78;20.98;;;;;;;2.85;71.05;97623.28;5050278;28;20032;-73
2022/11/24 01:31:28;;;;;;;47.22;18.88;;;;;;;2.78;71.02;97620.84;5050570;28;20029;-73
2022/11/24 01:33:53;;;;;;;34.03;16.02;;;;;;;2.77;70.85;97630.03;5050337;28;20033;-73
2022/11/24 01:36:19;;;;;;;34.55;17.10;;;;;;;2.76;71.00;97627.59;5049930;28;20063;-73
2022/11/24 01:38:45;;;;;;;33.60;17.13;;;;;;;2.77;71.29;97631.91;5050273;28;20025;-73
2022/11/24 01:41:21;;;;;;;36.70;16.77;;;;;;;2.76;70.97;97633.00;5050066;28;20082;-72
2022/11/24 01:43:47;;;;;;;35.85;16.98;;;;;;;2.77;71.18;97635.47;5050186;28;20013;-73
2022/11/24 01:46:22;;;;;;;40.70;18.88;;;;;;;2.75;70.95;97636.78;5049896;28;20029;-72
2022/11/24 01:49:00;;;;;;;37.22;16.88;;;;;;;2.75;71.05;97634.91;5049995;28;20090;-72
2022/11/24 01:51:29;;;;;;;37.17;17.17;;;;;;;2.78;70.97;97628.97;5049028;28;20044;-72
2022/11/24 01:54:04;;;;;;;37.58;16.92;;;;;;;2.80;70.62;97631.38;5049802;28;20090;-72
2022/11/24 01:56:32;;;;;;;40.63;17.80;;;;;;;2.82;71.18;97642.78;5048923;28;20082;-74
2022/11/24 01:59:01;;;;;;;39.33;18.13;;;;;;;2.78;70.79;97637.09;5049880;28;20017;-73
2022/11/24 02:01:28;;;;;;;39.00;17.95;;;;;;;2.76;70.83;97641.13;5049980;28;20111;-74
2022/11/24 02:03:54;;;;;;;36.20;16.65;;;;;;;2.74;71.54;97641.41;5049797;28;20031;-72
2022/11/24 02:06:26;;;;;;;36.80;16.95;;;;;;;2.73;71.26;97639.78;5049150;28;20020;-73
2022/11/24 02:08:58;;;;;;;37.25;17.70;;;;;;;2.71;71.24;97643.81;5047909;28;20041;-72
2022/11/24 02:11:27;;;;;;;34.03;16.50;;;;;;;2.68;71.46;97645.16;5048895;28;20476;-72
2022/11/24 02:13:54;;;;;;;33.33;16.38;;;;;;;2.66;71.11;97634.59;5049184;28;20097;-72
2022/11/24 02:16:19;;;;;;;37.58;17.60;;;;;;;2.65;71.21;97632.94;5048376;28;20020;-73
2022/11/24 02:18:45;;;;;;;36.85;18.23;;;;;;;2.65;70.95;97641.06;5048783;28;20078;-73
2022/11/24 02:21:13;;;;;;;38.45;18.58;;;;;;;2.66;71.05;97647.31;5049824;28;20025;-72
2022/11/24 02:23:41;;;;;;;39.03;18.35;;;;;;;2.66;71.55;97633.78;5049900;28;20028;-73
2022/11/24 02:26:28;;;;;;;40.92;19.00;;;;;;;2.68;70.93;97642.47;5049816;28;20029;-73
2022/11/24 02:28:54;;;;;;;40.65;18.15;;;;;;;2.69;71.09;97641.38;5047993;28;20044;-73
2022/11/24 02:31:20;;;;;;;40.90;18.75;;;;;;;2.70;71.63;97643.00;5049659;28;20025;-73
2022/11/24 02:33:47;;;;;;;45.95;18.92;;;;;;;2.70;70.95;97647.59;5049563;28;20123;-72
2022/11/24 02:36:12;;;;;;;41.08;17.67;;;;;;;2.70;70.87;97647.59;5046840;28;20021;-73
2022/11/24 02:38:38;;;;;;;38.83;17.95;;;;;;;2.71;71.01;97641.09;5048521;28;20040;-73
2022/11/24 02:41:07;;;;;;;38.17;17.65;;;;;;;2.74;71.78;97640.56;5048541;28;20044;-73
2022/11/24 02:43:38;;;;;;;40.97;17.20;;;;;;;2.73;70.98;97630.81;5048928;28;20169;-72
2022/11/24 02:46:04;;;;;;;35.88;17.77;;;;;;;2.75;71.41;97632.19;5048656;28;21297;-73
2022/11/24 02:48:29;;;;;;;38.40;18.63;;;;;;;2.75;71.73;97634.06;5048424;28;20481;-73
2022/11/24 02:50:54;;;;;;;36.28;17.38;;;;;;;2.75;71.60;97637.63;5048539;28;20119;-72
2022/11/24 02:53:20;;;;;;;37.42;18.30;;;;;;;2.78;71.36;97639.78;5048933;28;20547;-73
2022/11/24 02:55:45;;;;;;;36.10;17.25;;;;;;;2.79;71.81;97643.31;5048700;28;20025;-73
2022/11/24 02:58:11;;;;;;;36.00;17.67;;;;;;;2.80;71.19;97644.94;5048626;28;20041;-72
2022/11/24 03:00:36;;;;;;;40.17;18.58;;;;;;;2.80;70.86;97636.81;5049076;28;20029;-73
2022/11/24 03:03:02;;;;;;;35.83;16.73;;;;;;;2.80;71.34;97643.06;5049146;28;20063;-72
2022/11/24 03:05:27;;;;;;;38.45;18.48;;;;;;;2.80;70.95;97637.63;5048165;28;20510;-73
2022/11/24 03:07:53;;;;;;;37.70;18.02;;;;;;;2.81;71.41;97643.84;5049195;28;20025;-72
2022/11/24 03:10:18;;;;;;;36.58;17.48;;;;;;;2.82;71.24;97648.19;5049041;28;20021;-73
2022/11/24 03:12:44;;;;;;;37.78;18.88;;;;;;;2.82;71.39;97653.59;5049322;28;20019;-73
2022/11/24 03:15:10;;;;;;;37.03;18.45;;;;;;;2.81;70.99;97647.38;5047633;28;20064;-73
2022/11/24 03:17:35;;;;;;;38.83;18.27;;;;;;;2.82;71.39;97651.72;5049081;28;20100;-73
2022/11/24 03:20:01;;;;;;;41.45;19.23;;;;;;;2.82;70.98;97645.47;5048365;28;20064;-73
2022/11/24 03:22:27;;;;;;;51.63;22.45;;;;;;;2.81;71.24;97658.22;5050264;28;20110;-72
2022/11/24 03:24:52;;;;;;;41.15;18.20;;;;;;;2.80;71.61;97653.06;5052727;28;20033;-73
2022/11/24 03:27:17;;;;;;;42.65;18.77;;;;;;;2.82;71.32;97661.72;5052745;28;20056;-73
2022/11/24 03:29:43;;;;;;;40.53;19.23;;;;;;;2.80;71.14;97658.47;5051873;28;20032;-73
2022/11/24 03:32:08;;;;;;;38.53;17.88;;;;;;;2.81;71.25;97660.09;5052665;28;20024;-73
2022/11/24 03:34:34;;;;;;;34.80;16.70;;;;;;;2.81;70.84;97651.97;5052468;28;20033;-73
2022/11/24 03:36:59;;;;;;;36.22;18.13;;;;;;;2.82;71.25;97661.72;5052142;28;20048;-73
2022/11/24 03:39:24;;;;;;;37.20;18.88;;;;;;;2.83;70.81;97658.78;5052203;28;20035;-72
2022/11/24 03:41:53;;;;;;;37.90;17.52;;;;;;;2.80;71.11;97658.47;5052233;28;20025;-73
2022/11/24 03:44:18;;;;;;;37.30;17.67;;;;;;;2.79;71.71;97657.66;5051970;28;20416;-73
2022/11/24 03:46:44;;;;;;;40.33;19.35;;;;;;;2.78;71.50;97660.63;5052477;28;20029;-73
2022/11/24 03:49:09;;;;;;;36.50;17.55;;;;;;;2.78;71.19;97663.34;5051704;28;20040;-73
2022/11/24 03:51:35;;;;;;;38.97;18.15;;;;;;;2.79;71.66;97664.97;5052129;28;20043;-73
2022/11/24 03:54:00;;;;;;;37.15;17.75;;;;;;;2.80;70.96;97670.13;5052679;28;20528;-73
2022/11/24 03:56:26;;;;;;;41.47;18.40;;;;;;;2.81;71.27;97669.06;5052441;28;20032;-73
2022/11/24 03:58:52;;;;;;;39.22;18.80;;;;;;;2.82;71.34;97667.16;5052622;28;20067;-73
2022/11/24 04:01:17;;;;;;;40.88;18.38;;;;;;;2.82;71.20;97677.97;5052137;28;20086;-71
2022/11/24 04:03:42;;;;;;;45.20;19.70;;;;;;;2.81;70.84;97676.34;5052110;28;20055;-74
2022/11/24 04:06:08;;;;;;;43.70;20.50;;;;;;;2.81;70.95;97673.63;5051720;28;20044;-71
2022/11/24 04:08:33;;;;;;;39.15;18.35;;;;;;;2.80;71.48;97680.97;5052708;28;20051;-71
2022/11/24 04:10:59;;;;;;;40.63;20.73;;;;;;;2.82;71.27;97677.97;5052578;28;20039;-72
2022/11/24 04:13:28;;;;;;;41.80;21.75;;;;;;;2.81;71.97;97682.59;5052596;28;20033;-70
2022/11/24 04:15:53;;;;;;;46.40;23.50;;;;;;;2.82;71.05;97683.41;5050881;28;20032;-72
2022/11/24 04:18:19;;;;;;;46.35;22.15;;;;;;;2.80;71.35;97683.66;5052227;28;20472;-71
2022/11/24 04:20:47;;;;;;;40.22;19.98;;;;;;;2.79;71.30;97683.91;5050241;28;20021;-72
2022/11/24 04:23:13;;;;;;;38.55;20.23;;;;;;;2.78;70.95;97676.88;5051335;28;20033;-71
2022/11/24 04:25:38;;;;;;;40.65;20.05;;;;;;;2.76;71.79;97685.28;5051269;28;20152;-72
2022/11/24 04:28:03;;;;;;;41.00;20.13;;;;;;;2.76;71.16;97684.44;5051015;28;20465;-71
2022/11/24 04:30:29;;;;;;;40.55;19.52;;;;;;;2.74;71.85;97682.03;5050215;28;20021;-71
2022/11/24 04:32:56;;;;;;;40.65;19.33;;;;;;;2.76;71.27;97692.56;5051147;28;20029;-71
2022/11/24 04:35:21;;;;;;;41.97;19.90;;;;;;;2.75;71.56;97694.47;5050309;28;20027;-72
2022/11/24 04:37:47;;;;;;;41.33;19.98;;;;;;;2.76;71.21;97700.69;5051809;28;20033;-71
2022/11/24 04:40:13;;;;;;;42.08;20.00;;;;;;;2.76;71.57;97704.22;5051789;28;20049;-71
2022/11/24 04:42:38;;;;;;;43.83;20.13;;;;;;;2.76;71.45;97703.41;5050915;28;20094;-71
2022/11/24 04:45:05;;;;;;;45.08;20.38;;;;;;;2.74;71.29;97705.56;5051364;28;20032;-71
2022/11/24 04:47:30;;;;;;;44.05;19.73;;;;;;;2.71;70.83;97716.91;5033643;28;20515;-71
2022/11/24 04:49:56;;;;;;;42.17;21.30;;;;;;;2.69;71.19;97709.06;5051274;28;20072;-71
2022/11/24 04:52:23;;;;;;;45.97;20.65;;;;;;;2.65;70.91;97708.75;5051192;28;20181;-71
2022/11/24 04:54:49;;;;;;;41.50;20.38;;;;;;;2.67;71.13;97727.47;5051497;28;20027;-71
2022/11/24 04:57:23;;;;;;;42.53;20.42;;;;;;;2.68;71.30;97729.09;5047946;28;20021;-71
2022/11/24 04:59:49;;;;;;;43.45;20.63;;;;;;;2.71;71.61;97725.03;5051493;28;20043;-72
2022/11/24 05:02:15;;;;;;;41.20;19.67;;;;;;;2.72;71.44;97730.22;5051287;28;20472;-71
2022/11/24 05:04:40;;;;;;;43.67;21.27;;;;;;;2.73;71.71;97725.59;5051031;28;20087;-70
2022/11/24 05:07:06;;;;;;;55.42;25.63;;;;;;;2.70;71.14;97729.66;5051262;28;20104;-71
2022/11/24 05:09:32;;;;;;;54.15;24.58;;;;;;;2.68;71.67;97726.38;5051140;28;20500;-71
2022/11/24 05:11:57;;;;;;;49.53;24.38;;;;;;;2.63;70.96;97724.47;5051846;28;20025;-71
2022/11/24 05:14:22;;;;;;;52.92;24.85;;;;;;;2.64;71.08;97734.22;5051914;28;20061;-71
2022/11/24 05:16:48;;;;;;;49.90;23.63;;;;;;;2.63;71.60;97735.31;5051709;28;20048;-71
2022/11/24 05:19:13;;;;;;;44.80;21.58;;;;;;;2.62;71.55;97733.69;5051682;28;20028;-70
2022/11/24 05:21:39;;;;;;;50.38;22.33;;;;;;;2.60;71.55;97738.53;5051428;28;20461;-72
2022/11/24 05:24:05;;;;;;;50.28;22.58;;;;;;;2.57;71.26;97736.34;5050831;28;20043;-72
2022/11/24 05:26:30;;;;;;;51.70;23.17;;;;;;;2.58;71.44;97735.28;5049896;28;20025;-71
2022/11/24 05:28:56;;;;;;;55.47;24.70;;;;;;;2.58;71.87;97729.88;5051382;28;20089;-71
2022/11/24 05:31:21;;;;;;;56.40;25.42;;;;;;;2.57;71.23;97736.34;5051344;28;20033;-71
2022/11/24 05:33:47;;;;;;;53.13;23.83;;;;;;;2.58;71.98;97732.56;5051105;28;20037;-71
2022/11/24 05:36:51;;;;;;;48.92;23.00;;;;;;;2.60;71.97;97732.28;5050787;28;20036;-71
2022/11/24 05:38:58;;;;;;;47.58;21.27;;;;;;;2.59;71.47;97720.66;5050983;28;20410;-71
2022/11/24 05:41:23;;;;;;;50.28;23.05;;;;;;;2.60;71.63;97725.00;5052271;28;20033;-71
2022/11/24 05:43:48;;;;;;;60.42;27.23;;;;;;;2.62;71.99;97741.81;5051063;28;20075;-72
2022/11/24 05:46:14;;;;;;;59.05;27.30;;;;;;;2.64;71.56;97742.34;5049850;28;20052;-71
2022/11/24 05:48:39;;;;;;;60.42;27.88;;;;;;;2.63;71.56;97745.31;5050829;28;20079;-71
2022/11/24 05:51:05;;;;;;;51.33;25.02;;;;;;;2.62;71.38;97749.09;5049682;28;20060;-71
2022/11/24 05:53:30;;;;;;;51.58;23.55;;;;;;;2.62;71.99;97749.94;5050776;28;20033;-72
2022/11/24 05:55:55;;;;;;;56.20;23.77;;;;;;;2.64;71.96;97768.59;5049580;28;20025;-72
2022/11/24 05:58:21;;;;;;;55.75;24.65;;;;;;;2.62;71.91;97766.16;5050217;28;20108;-71
2022/11/24 06:00:46;;;;;;;53.90;23.92;;;;;;;2.61;71.72;97769.94;5050828;28;20061;-71
2022/11/24 06:03:11;;;;;;;59.40;27.40;;;;;;;2.63;71.38;97772.38;5050284;28;20401;-72
2022/11/24 06:05:37;;;;;;;62.88;28.75;;;;;;;2.63;71.71;97781.34;5050035;28;20031;-71
2022/11/24 06:08:03;;;;;;;62.58;28.67;;;;;;;2.63;71.94;97780.50;5050700;28;20055;-71
2022/11/24 06:10:29;;;;;;;63.13;26.35;;;;;;;2.64;72.02;97782.13;5050820;28;20033;-72
2022/11/24 06:12:55;;;;;;;55.92;25.55;;;;;;;2.65;71.53;97787.28;5050754;28;20031;-72
2022/11/24 06:15:21;;;;;;;59.13;25.50;;;;;;;2.65;72.16;97784.56;5050127;28;20029;-71
2022/11/24 06:17:54;;;;;;;71.15;30.15;;;;;;;2.65;71.94;97786.47;5050694;28;20375;-72
2022/11/24 06:20:20;;;;;;;60.85;27.20;;;;;;;2.66;71.93;97791.63;5050720;28;20389;-72
2022/11/24 06:22:47;;;;;;;53.72;24.20;;;;;;;2.65;71.94;97798.09;5050937;28;20445;-71
2022/11/24 06:25:12;;;;;;;51.63;23.77;;;;;;;2.67;72.32;97801.38;5050081;28;20037;-72
2022/11/24 06:27:38;;;;;;;51.03;23.92;;;;;;;2.67;71.52;97801.38;5050776;28;20381;-72
2022/11/24 06:30:03;;;;;;;77.55;29.05;;;;;;;2.68;72.19;97799.50;5050430;28;20029;-71
2022/11/24 06:32:29;;;;;;;70.68;27.65;;;;;;;2.67;71.53;97801.38;5050401;28;20036;-72
2022/11/24 06:34:54;;;;;;;56.45;24.75;;;;;;;2.69;71.39;97806.53;5048776;28;20029;-72
2022/11/24 06:37:20;;;;;;;57.50;25.83;;;;;;;2.70;71.82;97810.06;5049655;28;20075;-72
2022/11/24 06:39:45;;;;;;;60.03;32.47;;;;;;;2.67;71.84;97808.69;5050321;28;20112;-72
2022/11/24 06:42:11;;;;;;;63.13;28.90;;;;;;;2.66;72.30;97809.78;5050129;28;20098;-72
2022/11/24 06:44:36;;;;;;;52.53;24.80;;;;;;;2.67;71.79;97816.81;5050397;28;20052;-72
2022/11/24 06:47:01;;;;;;;57.38;25.55;;;;;;;2.66;71.63;97815.19;5049367;28;20040;-72
2022/11/24 06:49:27;;;;;;;55.83;23.83;;;;;;;2.67;71.99;97822.22;5049809;28;20526;-72
2022/11/24 06:51:53;;;;;;;57.90;25.05;;;;;;;2.67;72.11;97812.19;5050079;28;20033;-72
2022/11/24 06:54:20;;;;;;;55.38;25.13;;;;;;;2.70;71.36;97813.59;5050171;28;20033;-71
2022/11/24 06:56:46;;;;;;;59.65;25.23;;;;;;;2.72;71.92;97818.72;5049772;28;20033;-72
2022/11/24 06:59:19;;;;;;;54.78;23.88;;;;;;;2.72;71.90;97819.56;5054187;28;20403;-71
2022/11/24 07:01:45;;;;;;;53.72;24.30;;;;;;;2.76;71.40;97825.25;5053913;28;20040;-71
2022/11/24 07:04:11;;;;;;;49.85;23.38;;;;;;;2.77;71.63;97827.72;5053547;28;20537;-72
2022/11/24 07:06:38;;;;;;;51.35;22.60;;;;;;;2.79;71.34;97832.88;5052612;28;20046;-71
2022/11/24 07:09:04;;;;;;;50.58;24.20;;;;;;;2.79;71.73;97836.41;5053980;28;20100;-72
2022/11/24 07:11:29;;;;;;;52.80;24.00;;;;;;;2.79;71.44;97841.00;5053431;28;20108;-72
2022/11/24 07:13:56;;;;;;;54.65;24.67;;;;;;;2.79;72.07;97836.41;5053779;28;20025;-71
2022/11/24 07:16:24;;;;;;;52.13;23.17;;;;;;;2.79;71.27;97841.00;5052144;28;20397;-72
2022/11/24 07:18:51;;;;;;;49.08;22.20;;;;;;;2.79;72.05;97847.25;5053543;28;20017;-72
2022/11/24 07:21:17;;;;;;;52.45;23.40;;;;;;;2.81;71.69;97844.25;5053648;28;20044;-72
2022/11/24 07:23:42;;;;;;;58.03;25.00;;;;;;;2.82;72.15;97848.59;5053819;28;20082;-72
2022/11/24 07:26:09;;;;;;;48.05;23.42;;;;;;;2.81;72.15;97846.97;5053578;28;20021;-72
2022/11/24 07:28:35;;;;;;;52.75;24.40;;;;;;;2.82;71.43;97854.00;5053141;28;20436;-73
2022/11/24 07:31:09;;;;;;;51.75;23.33;;;;;;;2.77;71.24;97846.69;5053707;28;20029;-73
2022/11/24 07:33:35;;;;;;;52.58;23.48;;;;;;;2.76;71.42;97853.16;5053619;28;20029;-73
2022/11/24 07:36:03;;;;;;;51.80;22.20;;;;;;;2.73;71.15;97853.69;5053076;28;20124;-73
2022/11/24 07:38:29;;;;;;;48.65;22.85;;;;;;;2.74;71.62;97854.50;5052675;28;20029;-73
2022/11/24 07:41:00;;;;;;;47.22;21.75;;;;;;;2.72;71.69;97852.06;5053444;28;20032;-72
2022/11/24 07:43:25;;;;;;;54.15;23.13;;;;;;;2.69;72.02;97860.69;5053627;28;20029;-73
2022/11/24 07:45:51;;;;;;;54.83;24.13;;;;;;;2.65;71.38;97862.28;5053240;28;20037;-73
2022/11/24 07:48:16;;;;;;;52.55;23.27;;;;;;;2.67;71.68;97865.56;5052776;28;20021;-73
2022/11/24 07:50:42;;;;;;;51.78;22.90;;;;;;;2.64;71.30;97864.19;5053139;28;20037;-73
2022/11/24 07:53:07;;;;;;;59.65;25.52;;;;;;;2.62;71.85;97860.09;5053167;28;20592;-72
2022/11/24 07:55:34;;;;;;;60.58;27.17;;;;;;;2.58;71.95;97862.50;5053242;28;20027;-73
2022/11/24 07:58:00;;;;;;;56.05;24.25;;;;;;;2.61;71.98;97870.13;5052627;28;20033;-73
2022/11/24 08:00:26;;;;;;;51.10;23.35;;;;;;;2.65;72.33;97875.81;5051966;28;20455;-73
2022/11/24 08:02:52;;;;;;;54.47;24.00;;;;;;;2.68;71.68;97872.59;5053092;28;20083;-73
2022/11/24 08:05:17;;;;;;;52.90;23.13;;;;;;;2.72;71.80;97883.72;5052678;28;20033;-73
2022/11/24 08:07:42;;;;;;;55.90;25.00;;;;;;;2.71;71.80;97882.09;5052845;28;20024;-72
2022/11/24 08:10:08;;;;;;;62.55;26.35;;;;;;;2.67;71.50;97885.31;5051224;28;20052;-73
2022/11/24 08:12:34;;;;;;;57.00;25.73;;;;;;;2.65;71.84;97887.47;5051545;28;20071;-74
2022/11/24 08:14:59;;;;;;;54.80;25.13;;;;;;;2.64;72.01;97893.97;5052404;28;20113;-72
2022/11/24 08:17:24;;;;;;;52.50;23.90;;;;;;;2.62;71.86;97896.13;5052755;28;20465;-72
2022/11/24 08:19:50;;;;;;;54.33;23.98;;;;;;;2.61;71.83;97894.50;5047577;28;20021;-72
2022/11/24 08:22:15;;;;;;;56.72;24.23;;;;;;;2.60;72.25;97892.03;5051310;28;20036;-71
2022/11/24 08:24:45;;;;;;;60.90;24.92;;;;;;;2.62;72.74;97901.53;5051845;28;20406;-71
2022/11/24 08:27:11;;;;;;;67.07;29.83;;;;;;;2.63;72.47;97897.75;5051680;28;20687;-72
2022/11/24 08:29:37;;;;;;;60.28;27.70;;;;;;;2.64;72.36;97898.56;5051240;28;20155;-72
2022/11/24 08:32:02;;;;;;;65.05;28.00;;;;;;;2.66;72.27;97904.53;5043464;28;20108;-72
2022/11/24 08:34:28;;;;;;;62.80;26.95;;;;;;;2.68;71.82;97902.38;5045372;28;20041;-72
2022/11/24 08:36:53;;;;;;;56.45;24.40;;;;;;;2.71;72.00;97906.47;5051138;28;20029;-71
2022/11/24 08:39:19;;;;;;;54.38;23.27;;;;;;;2.70;71.97;97908.38;5049668;28;20534;-72
2022/11/24 08:41:44;;;;;;;53.90;23.77;;;;;;;2.70;72.75;97915.66;5050571;28;20024;-72
2022/11/24 08:44:13;;;;;;;54.30;23.40;;;;;;;2.70;72.61;97910.25;5050394;28;20380;-71
2022/11/24 08:46:39;;;;;;;54.75;23.17;;;;;;;2.71;72.48;97915.41;5050872;28;20036;-71
2022/11/24 08:49:05;;;;;;;52.30;23.38;;;;;;;2.72;72.01;97916.22;5048863;28;20024;-72
2022/11/24 08:51:30;;;;;;;53.78;23.30;;;;;;;2.67;71.76;97917.00;5048544;28;20049;-72
2022/11/24 08:53:58;;;;;;;52.75;22.75;;;;;;;2.61;71.78;97921.56;5049909;28;20047;-72
2022/11/24 08:56:25;;;;;;;49.45;22.23;;;;;;;2.60;72.09;97916.38;5049592;28;20043;-71
2022/11/24 08:58:50;;;;;;;52.25;22.20;;;;;;;2.62;72.63;97917.78;5050887;28;20108;-73
2022/11/24 09:01:16;;;;;;;54.22;23.17;;;;;;;2.67;72.41;97917.81;5049538;28;20533;-72
2022/11/24 09:03:43;;;;;;;57.97;24.42;;;;;;;2.73;72.56;97917.84;5050546;28;20037;-71
2022/11/24 09:06:09;;;;;;;79.82;30.08;;;;;;;2.76;72.98;97920.03;5050115;28;20036;-72
2022/11/24 09:08:36;;;;;;;73.53;30.33;;;;;;;2.78;72.18;97915.19;5049710;28;20033;-73
2022/11/24 09:11:06;;;;;;;68.22;27.13;;;;;;;2.79;72.27;97916.81;5050872;28;20500;-73
2022/11/24 09:13:31;;;;;;;;;;;;;;;2.76;72.20;97917.34;5051529;28;20065;-73
2022/11/24 09:16:02;;;;;;;68.25;27.98;;;;;;;2.77;72.55;97918.97;5050006;28;20042;-72
2022/11/24 09:18:28;;;;;;;68.10;27.25;;;;;;;2.76;72.26;97920.88;5050687;28;20044;-73
2022/11/24 09:20:57;;;;;;;64.18;27.77;;;;;;;2.78;72.67;97921.44;5050234;28;20473;-73
2022/11/24 09:23:22;;;;;;;62.85;26.10;;;;;;;2.80;72.37;97929.28;5050890;28;20037;-72
2022/11/24 09:25:47;;;;;;;67.47;28.33;;;;;;;2.81;72.59;97920.09;5050275;28;20091;-73
2022/11/24 09:28:13;;;;;;;62.60;26.63;;;;;;;2.83;71.94;97924.19;5050368;28;20586;-73
2022/11/24 09:30:38;;;;;;;61.47;26.38;;;;;;;2.86;72.07;97922.84;5050738;28;20024;-73
2022/11/24 09:33:04;;;;;;;72.15;27.92;;;;;;;2.83;71.95;97926.91;5049691;28;20116;-73
2022/11/24 09:35:29;;;;;;;67.70;27.17;;;;;;;2.84;72.90;97930.41;5049841;28;20029;-73
2022/11/24 09:37:55;;;;;;;63.40;26.92;;;;;;;2.85;72.43;97931.22;5049829;28;20511;-73
2022/11/24 09:40:21;;;;;;;66.60;27.73;;;;;;;2.87;72.78;97932.59;5050451;28;20036;-74
2022/11/24 09:43:05;;;;;;;62.70;26.27;;;;;;;2.89;73.03;97924.19;5049663;28;20147;-73
2022/11/24 09:45:46;;;;;;;65.25;27.60;;;;;;;2.92;72.95;97935.34;5048535;28;20032;-72
2022/11/24 09:48:29;;;;;;;70.40;28.70;;;;;;;2.94;72.49;97932.38;5049427;28;20052;-72
2022/11/24 09:50:58;;;;;;;68.68;28.25;;;;;;;2.94;72.29;97933.19;5050078;28;20049;-74
2022/11/24 09:53:43;;;;;;;69.97;28.87;;;;;;;2.95;72.05;97928.59;5049497;28;20041;-73
2022/11/24 09:56:14;;;;;;;67.70;28.70;;;;;;;2.97;71.94;97929.97;5049368;28;20488;-74
2022/11/24 09:58:50;;;;;;;71.55;29.25;;;;;;;2.97;72.45;97929.16;5050002;28;20028;-73
2022/11/24 10:01:23;;;;;;;73.55;31.20;;;;;;;2.97;72.99;97929.97;5050445;28;20056;-73
2022/11/24 10:03:50;;;;;;;74.30;30.17;;;;;;;2.97;72.46;97932.69;5049422;28;20025;-73
2022/11/24 10:06:19;;;;;;;77.47;31.92;;;;;;;2.98;72.14;97931.59;5048946;28;20505;-73
2022/11/24 10:08:49;;;;;;;66.57;28.93;;;;;;;2.96;72.78;97931.06;5050440;28;20021;-73
2022/11/24 10:11:21;;;;;;;67.85;29.35;;;;;;;2.97;72.69;97931.84;5050626;28;20089;-76
2022/11/24 10:14:17;;;;;;;70.32;29.85;;;;;;;2.93;72.15;97930.72;5050521;28;20029;-74
2022/11/24 10:16:56;;;;;;;72.25;28.85;;;;;;;2.92;72.30;97935.34;5046757;28;20040;-74
2022/11/24 10:19:35;;;;;;;67.20;28.90;;;;;;;2.87;72.71;97935.31;5050025;28;20203;-75
2022/11/24 10:22:19;;;;;;;59.55;25.98;;;;;;;2.82;72.42;97930.69;5049918;28;20493;-75
2022/11/24 10:25:13;;;;;;;58.63;24.55;;;;;;;2.76;72.54;97933.59;5049223;28;20036;-75
2022/11/24 10:27:43;;;;;;;52.55;22.63;;;;;;;2.73;72.76;97937.63;5048676;28;20039;-75
2022/11/24 10:30:27;;;;;;;57.03;24.38;;;;;;;2.74;72.87;97939.28;5049814;28;20031;-75
2022/11/24 10:33:32;;;;;;;56.65;24.90;;;;;;;2.70;72.35;97931.91;5051619;28;20041;-74
2022/11/24 10:36:05;;;;;;;48.67;21.40;;;;;;;2.71;72.07;97930.81;5011348;28;20029;-75
2022/11/24 10:38:39;;;;;;;51.30;22.50;;;;;;;2.72;72.58;97929.75;5008931;28;20041;-75
2022/11/24 10:41:11;;;;;;;58.75;24.48;;;;;;;2.68;73.26;97930.25;5026881;28;20044;-74
2022/11/24 10:43:40;;;;;;;60.40;25.02;;;;;;;2.64;73.24;97928.34;5053600;28;20115;-75
2022/11/24 10:46:25;;;;;;;58.47;28.33;;;;;;;2.61;73.33;97936.97;5053098;28;20033;-74
2022/11/24 10:48:59;;;;;;;84.68;34.63;;;;;;;2.66;72.42;97943.25;5053421;28;20528;-74
2022/11/24 10:51:30;;;;;;;78.43;31.40;;;;;;;2.64;72.39;97945.41;5053509;28;20052;-75
2022/11/24 10:54:04;;;;;;;77.63;31.80;;;;;;;2.67;72.58;97939.47;5053213;28;20059;-74
2022/11/24 10:56:40;;;;;;;68.25;29.30;;;;;;;2.71;72.90;97941.66;5052907;28;20198;-74
2022/11/24 10:59:23;;;;;;;63.17;28.52;;;;;;;2.73;73.33;97950.34;5053385;28;20013;-77
2022/11/24 11:01:50;;;;;;;62.30;26.77;;;;;;;2.75;73.23;97948.19;5053630;28;20025;-76
2022/11/24 11:04:21;;;;;;;58.67;26.08;;;;;;;2.79;72.74;97952.03;5051609;28;20465;-75
2022/11/24 11:06:46;;;;;;;69.40;28.17;;;;;;;2.78;73.01;97940.38;5053233;28;20115;-74
2022/11/24 11:09:21;;;;;;;65.15;27.73;;;;;;;2.80;72.78;97946.38;5052950;28;20426;-74
2022/11/24 11:11:47;;;;;;;75.22;30.45;;;;;;;2.82;73.66;97946.09;5053354;28;20024;-74
2022/11/24 11:14:31;;;;;;;68.53;27.85;;;;;;;2.85;73.42;97948.28;5051733;28;20033;-75
2022/11/24 11:16:58;;;;;;;65.55;26.77;;;;;;;2.90;73.15;97939.38;5052788;28;20478;-77
2022/11/24 11:19:39;;;;;;;71.90;29.52;;;;;;;2.92;72.90;97945.34;5053004;28;20028;-74
2022/11/24 11:22:10;;;;;;;65.00;28.98;;;;;;;2.97;73.35;97937.28;5053158;28;20103;-75
2022/11/24 11:24:41;;;;;;;63.95;27.23;;;;;;;3.01;73.81;97940.28;5052798;28;20033;-76
2022/11/24 11:27:17;;;;;;;55.00;23.35;;;;;;;3.04;73.04;97939.78;5052930;28;20029;-75